N145NG VA88-VA88
Flight info
| Callsign | N145NG |
|---|---|
| Flight time | 0h 53m |
| Altitude | 1200 |
| Route | VFR |
| Aircraft | EC45/L-G/C |
Departure
| Time | 2026-05-07 16:10 |
|---|---|
| Airport | Sentara Norfolk General Hospital Heliport (VA88) |
Arrival
| Time | 2026-05-07 17:04 |
|---|---|
| Airport | Sentara Norfolk General Hospital Heliport (VA88) |
| Time | Latitude | Longitude | Altitude | Speed | Heading |
|---|---|---|---|---|---|
| 2026-05-07 16:08 | 36.86171 | -76.30482 | 17 ft | 0 kts | 0° |
| 2026-05-07 16:08 | 36.86174 | -76.30480 | 34 ft | 2 kts | 9° |
| 2026-05-07 16:09 | 36.86173 | -76.30473 | 280 ft | 1 kts | 346° |
| 2026-05-07 16:09 | 36.86227 | -76.30486 | 267 ft | 26 kts | 342° |
| 2026-05-07 16:09 | 36.86462 | -76.30640 | 236 ft | 50 kts | 317° |
| 2026-05-07 16:09 | 36.86732 | -76.31026 | 244 ft | 66 kts | 307° |
| 2026-05-07 16:10 | 36.86994 | -76.31551 | 385 ft | 77 kts | 298° |
| 2026-05-07 16:10 | 36.87324 | -76.32138 | 401 ft | 86 kts | 304° |
| 2026-05-07 16:10 | 36.87671 | -76.32708 | 573 ft | 77 kts | 307° |
| 2026-05-07 16:10 | 36.88030 | -76.33156 | 719 ft | 73 kts | 327° |
| 2026-05-07 16:11 | 36.88461 | -76.33454 | 809 ft | 71 kts | 328° |
| 2026-05-07 16:11 | 36.88906 | -76.33773 | 800 ft | 76 kts | 327° |
| 2026-05-07 16:11 | 36.89384 | -76.34133 | 794 ft | 86 kts | 326° |
| 2026-05-07 16:11 | 36.89913 | -76.34550 | 790 ft | 94 kts | 325° |
| 2026-05-07 16:12 | 36.90475 | -76.35010 | 790 ft | 99 kts | 324° |
| 2026-05-07 16:12 | 36.91065 | -76.35509 | 787 ft | 106 kts | 323° |
| 2026-05-07 16:12 | 36.91690 | -76.36053 | 786 ft | 113 kts | 323° |
| 2026-05-07 16:12 | 36.92345 | -76.36636 | 788 ft | 117 kts | 322° |
| 2026-05-07 16:13 | 36.93013 | -76.37247 | 788 ft | 120 kts | 322° |
| 2026-05-07 16:13 | 36.93693 | -76.37878 | 789 ft | 123 kts | 321° |
| 2026-05-07 16:13 | 36.94378 | -76.38523 | 790 ft | 124 kts | 321° |
| 2026-05-07 16:13 | 36.95064 | -76.39178 | 790 ft | 124 kts | 321° |
| 2026-05-07 16:14 | 36.95751 | -76.39838 | 788 ft | 126 kts | 321° |
| 2026-05-07 16:14 | 36.96449 | -76.40511 | 789 ft | 128 kts | 321° |
| 2026-05-07 16:14 | 36.97143 | -76.41187 | 792 ft | 125 kts | 321° |
| 2026-05-07 16:14 | 36.97828 | -76.41857 | 791 ft | 125 kts | 321° |
| 2026-05-07 16:15 | 36.98515 | -76.42531 | 790 ft | 125 kts | 321° |
| 2026-05-07 16:15 | 36.99204 | -76.43205 | 790 ft | 126 kts | 321° |
| 2026-05-07 16:15 | 36.99892 | -76.43881 | 790 ft | 125 kts | 320° |
| 2026-05-07 16:15 | 37.00579 | -76.44554 | 790 ft | 126 kts | 321° |
| 2026-05-07 16:16 | 37.01257 | -76.45220 | 791 ft | 125 kts | 320° |
| 2026-05-07 16:16 | 37.01946 | -76.45899 | 788 ft | 126 kts | 321° |
| 2026-05-07 16:16 | 37.02635 | -76.46575 | 789 ft | 126 kts | 321° |
| 2026-05-07 16:16 | 37.03326 | -76.47253 | 791 ft | 126 kts | 320° |
| 2026-05-07 16:17 | 37.04013 | -76.47928 | 789 ft | 125 kts | 320° |
| 2026-05-07 16:17 | 37.04705 | -76.48607 | 790 ft | 126 kts | 320° |
| 2026-05-07 16:17 | 37.05384 | -76.49274 | 789 ft | 126 kts | 321° |
| 2026-05-07 16:17 | 37.06073 | -76.49952 | 790 ft | 126 kts | 321° |
| 2026-05-07 16:18 | 37.06760 | -76.50629 | 790 ft | 125 kts | 320° |
| 2026-05-07 16:18 | 37.07448 | -76.51305 | 791 ft | 125 kts | 320° |
| 2026-05-07 16:18 | 37.08132 | -76.51981 | 790 ft | 125 kts | 320° |
| 2026-05-07 16:18 | 37.08817 | -76.52657 | 790 ft | 126 kts | 320° |
| 2026-05-07 16:19 | 37.09505 | -76.53337 | 792 ft | 126 kts | 320° |
| 2026-05-07 16:19 | 37.10192 | -76.54016 | 789 ft | 126 kts | 320° |
| 2026-05-07 16:19 | 37.10881 | -76.54697 | 791 ft | 126 kts | 320° |
| 2026-05-07 16:19 | 37.11568 | -76.55376 | 790 ft | 126 kts | 320° |
| 2026-05-07 16:20 | 37.12255 | -76.56054 | 789 ft | 126 kts | 320° |
| 2026-05-07 16:20 | 37.12944 | -76.56733 | 790 ft | 126 kts | 321° |
| 2026-05-07 16:20 | 37.13633 | -76.57414 | 790 ft | 126 kts | 320° |
| 2026-05-07 16:20 | 37.14323 | -76.58094 | 789 ft | 126 kts | 321° |
| 2026-05-07 16:21 | 37.15014 | -76.58774 | 790 ft | 126 kts | 320° |
| 2026-05-07 16:21 | 37.15698 | -76.59452 | 791 ft | 125 kts | 320° |
| 2026-05-07 16:21 | 37.16375 | -76.60120 | 789 ft | 126 kts | 320° |
| 2026-05-07 16:21 | 37.17069 | -76.60806 | 791 ft | 125 kts | 320° |
| 2026-05-07 16:22 | 37.17755 | -76.61484 | 789 ft | 126 kts | 321° |
| 2026-05-07 16:22 | 37.18433 | -76.62154 | 790 ft | 126 kts | 320° |
| 2026-05-07 16:22 | 37.19118 | -76.62831 | 790 ft | 125 kts | 320° |
| 2026-05-07 16:22 | 37.19804 | -76.63510 | 791 ft | 125 kts | 320° |
| 2026-05-07 16:23 | 37.20488 | -76.64188 | 789 ft | 126 kts | 320° |
| 2026-05-07 16:23 | 37.21176 | -76.64869 | 790 ft | 126 kts | 320° |
| 2026-05-07 16:23 | 37.21864 | -76.65550 | 790 ft | 126 kts | 320° |
| 2026-05-07 16:23 | 37.22553 | -76.66232 | 789 ft | 126 kts | 320° |
| 2026-05-07 16:24 | 37.23242 | -76.66915 | 791 ft | 125 kts | 320° |
| 2026-05-07 16:24 | 37.23926 | -76.67594 | 790 ft | 125 kts | 320° |
| 2026-05-07 16:24 | 37.24603 | -76.68265 | 790 ft | 126 kts | 320° |
| 2026-05-07 16:24 | 37.25299 | -76.68955 | 790 ft | 126 kts | 321° |
| 2026-05-07 16:25 | 37.25976 | -76.69627 | 789 ft | 126 kts | 320° |
| 2026-05-07 16:25 | 37.26664 | -76.70308 | 791 ft | 126 kts | 320° |
| 2026-05-07 16:25 | 37.27349 | -76.70990 | 792 ft | 125 kts | 320° |
| 2026-05-07 16:25 | 37.28029 | -76.71668 | 790 ft | 125 kts | 320° |
| 2026-05-07 16:26 | 37.28715 | -76.72351 | 790 ft | 125 kts | 320° |
| 2026-05-07 16:26 | 37.29400 | -76.73032 | 791 ft | 126 kts | 320° |
| 2026-05-07 16:26 | 37.30084 | -76.73712 | 788 ft | 126 kts | 320° |
| 2026-05-07 16:26 | 37.30539 | -76.74162 | 789 ft | 126 kts | 321° |
| 2026-05-07 16:27 | 37.31457 | -76.75072 | 791 ft | 125 kts | 320° |
| 2026-05-07 16:27 | 37.32141 | -76.75753 | 789 ft | 126 kts | 320° |
| 2026-05-07 16:27 | 37.32828 | -76.76436 | 790 ft | 126 kts | 320° |
| 2026-05-07 16:27 | 37.33505 | -76.77108 | 789 ft | 126 kts | 320° |
| 2026-05-07 16:28 | 37.34194 | -76.77792 | 790 ft | 126 kts | 320° |
| 2026-05-07 16:28 | 37.34878 | -76.78474 | 790 ft | 125 kts | 321° |
| 2026-05-07 16:28 | 37.35564 | -76.79156 | 790 ft | 126 kts | 320° |
| 2026-05-07 16:28 | 37.36249 | -76.79837 | 789 ft | 126 kts | 320° |
| 2026-05-07 16:29 | 37.36935 | -76.80518 | 791 ft | 125 kts | 320° |
| 2026-05-07 16:29 | 37.37618 | -76.81198 | 788 ft | 126 kts | 321° |
| 2026-05-07 16:29 | 37.38303 | -76.81880 | 791 ft | 125 kts | 320° |
| 2026-05-07 16:29 | 37.38984 | -76.82559 | 791 ft | 125 kts | 320° |
| 2026-05-07 16:30 | 37.39667 | -76.83241 | 790 ft | 125 kts | 320° |
| 2026-05-07 16:30 | 37.40351 | -76.83923 | 789 ft | 125 kts | 320° |
| 2026-05-07 16:30 | 37.41035 | -76.84605 | 790 ft | 125 kts | 320° |
| 2026-05-07 16:30 | 37.41721 | -76.85287 | 790 ft | 126 kts | 321° |
| 2026-05-07 16:31 | 37.42398 | -76.85964 | 789 ft | 126 kts | 320° |
| 2026-05-07 16:31 | 37.43086 | -76.86650 | 791 ft | 126 kts | 320° |
| 2026-05-07 16:31 | 37.43771 | -76.87335 | 790 ft | 125 kts | 320° |
| 2026-05-07 16:31 | 37.44408 | -76.87979 | 804 ft | 104 kts | 320° |
| 2026-05-07 16:32 | 37.44975 | -76.88549 | 787 ft | 107 kts | 321° |
| 2026-05-07 16:32 | 37.45553 | -76.89135 | 794 ft | 104 kts | 319° |
| 2026-05-07 16:32 | 37.46099 | -76.89706 | 793 ft | 100 kts | 321° |
| 2026-05-07 16:32 | 37.46667 | -76.90149 | 725 ft | 90 kts | 329° |
| 2026-05-07 16:33 | 37.46996 | -76.90410 | 566 ft | 79 kts | 322° |
| 2026-05-07 16:33 | 37.47352 | -76.90828 | 406 ft | 58 kts | 313° |
| 2026-05-07 16:33 | 37.47601 | -76.91162 | 250 ft | 24 kts | 315° |
| 2026-05-07 16:33 | 37.47661 | -76.91240 | 190 ft | 13 kts | 317° |
| 2026-05-07 16:34 | 37.47704 | -76.91292 | 174 ft | 10 kts | 319° |
| 2026-05-07 16:34 | 37.47744 | -76.91369 | 160 ft | 12 kts | 318° |
| 2026-05-07 16:34 | 37.47805 | -76.91438 | 106 ft | 8 kts | 284° |
| 2026-05-07 16:34 | 37.47815 | -76.91450 | 82 ft | 0 kts | 282° |
| 2026-05-07 16:39 | 37.47813 | -76.91449 | 133 ft | 1 kts | 293° |
| 2026-05-07 16:40 | 37.47811 | -76.91450 | 299 ft | 1 kts | 207° |
| 2026-05-07 16:40 | 37.47810 | -76.91440 | 318 ft | 4 kts | 134° |
| 2026-05-07 16:40 | 37.47683 | -76.91254 | 321 ft | 54 kts | 128° |
| 2026-05-07 16:40 | 37.47374 | -76.90711 | 315 ft | 95 kts | 123° |
| 2026-05-07 16:41 | 37.47000 | -76.89997 | 331 ft | 95 kts | 122° |
| 2026-05-07 16:41 | 37.46617 | -76.89350 | 453 ft | 90 kts | 137° |
| 2026-05-07 16:41 | 37.46121 | -76.88893 | 585 ft | 87 kts | 150° |
| 2026-05-07 16:41 | 37.45596 | -76.88534 | 741 ft | 85 kts | 156° |
| 2026-05-07 16:42 | 37.45052 | -76.88240 | 817 ft | 90 kts | 160° |
| 2026-05-07 16:42 | 37.44417 | -76.87976 | 806 ft | 102 kts | 165° |
| 2026-05-07 16:42 | 37.43719 | -76.87669 | 803 ft | 111 kts | 155° |
| 2026-05-07 16:42 | 37.43080 | -76.87108 | 807 ft | 111 kts | 140° |
| 2026-05-07 16:43 | 37.42475 | -76.86436 | 791 ft | 126 kts | 140° |
| 2026-05-07 16:43 | 37.41811 | -76.85706 | 802 ft | 125 kts | 140° |
| 2026-05-07 16:43 | 37.41151 | -76.84991 | 801 ft | 125 kts | 141° |
| 2026-05-07 16:43 | 37.40486 | -76.84285 | 799 ft | 126 kts | 141° |
| 2026-05-07 16:44 | 37.39814 | -76.83583 | 800 ft | 126 kts | 142° |
| 2026-05-07 16:44 | 37.39136 | -76.82886 | 800 ft | 126 kts | 142° |
| 2026-05-07 16:44 | 37.38458 | -76.82191 | 800 ft | 126 kts | 142° |
| 2026-05-07 16:44 | 37.37778 | -76.81500 | 800 ft | 126 kts | 143° |
| 2026-05-07 16:45 | 37.37096 | -76.80810 | 799 ft | 126 kts | 142° |
| 2026-05-07 16:45 | 37.36412 | -76.80123 | 800 ft | 126 kts | 142° |
| 2026-05-07 16:45 | 37.35727 | -76.79435 | 800 ft | 125 kts | 143° |
| 2026-05-07 16:45 | 37.35043 | -76.78750 | 801 ft | 126 kts | 142° |
| 2026-05-07 16:46 | 37.34362 | -76.78068 | 800 ft | 125 kts | 143° |
| 2026-05-07 16:46 | 37.33680 | -76.77384 | 801 ft | 125 kts | 142° |
| 2026-05-07 16:46 | 37.33001 | -76.76706 | 798 ft | 125 kts | 143° |
| 2026-05-07 16:46 | 37.32317 | -76.76024 | 801 ft | 125 kts | 143° |
| 2026-05-07 16:47 | 37.31636 | -76.75344 | 800 ft | 125 kts | 143° |
| 2026-05-07 16:47 | 37.30952 | -76.74660 | 801 ft | 125 kts | 143° |
| 2026-05-07 16:47 | 37.30270 | -76.73980 | 799 ft | 125 kts | 143° |
| 2026-05-07 16:47 | 37.29586 | -76.73299 | 801 ft | 125 kts | 143° |
| 2026-05-07 16:48 | 37.28902 | -76.72617 | 802 ft | 125 kts | 143° |
| 2026-05-07 16:48 | 37.28232 | -76.71948 | 799 ft | 125 kts | 143° |
| 2026-05-07 16:48 | 37.27550 | -76.71267 | 801 ft | 125 kts | 143° |
| 2026-05-07 16:48 | 37.26869 | -76.70588 | 800 ft | 125 kts | 143° |
| 2026-05-07 16:49 | 37.26186 | -76.69908 | 800 ft | 125 kts | 143° |
| 2026-05-07 16:49 | 37.25504 | -76.69231 | 798 ft | 125 kts | 143° |
| 2026-05-07 16:49 | 37.24819 | -76.68551 | 801 ft | 125 kts | 143° |
| 2026-05-07 16:49 | 37.24136 | -76.67873 | 799 ft | 125 kts | 143° |
| 2026-05-07 16:50 | 37.23453 | -76.67196 | 800 ft | 125 kts | 143° |
| 2026-05-07 16:50 | 37.22769 | -76.66515 | 801 ft | 125 kts | 143° |
| 2026-05-07 16:50 | 37.22085 | -76.65836 | 799 ft | 125 kts | 143° |
| 2026-05-07 16:50 | 37.21400 | -76.65157 | 799 ft | 125 kts | 143° |
| 2026-05-07 16:51 | 37.20718 | -76.64480 | 800 ft | 125 kts | 143° |
| 2026-05-07 16:51 | 37.20034 | -76.63802 | 800 ft | 125 kts | 143° |
| 2026-05-07 16:51 | 37.19351 | -76.63123 | 800 ft | 126 kts | 143° |
| 2026-05-07 16:51 | 37.18664 | -76.62442 | 800 ft | 126 kts | 143° |
| 2026-05-07 16:52 | 37.17977 | -76.61761 | 800 ft | 126 kts | 143° |
| 2026-05-07 16:52 | 37.17300 | -76.61090 | 799 ft | 125 kts | 143° |
| 2026-05-07 16:52 | 37.16613 | -76.60409 | 801 ft | 125 kts | 143° |
| 2026-05-07 16:52 | 37.15929 | -76.59730 | 799 ft | 126 kts | 143° |
| 2026-05-07 16:53 | 37.15242 | -76.59049 | 801 ft | 126 kts | 143° |
| 2026-05-07 16:53 | 37.14556 | -76.58369 | 800 ft | 125 kts | 143° |
| 2026-05-07 16:53 | 37.13869 | -76.57689 | 799 ft | 125 kts | 143° |
| 2026-05-07 16:53 | 37.13186 | -76.57012 | 801 ft | 125 kts | 143° |
| 2026-05-07 16:54 | 37.12505 | -76.56337 | 800 ft | 125 kts | 143° |
| 2026-05-07 16:54 | 37.11833 | -76.55671 | 801 ft | 125 kts | 143° |
| 2026-05-07 16:54 | 37.11152 | -76.54996 | 801 ft | 125 kts | 143° |
| 2026-05-07 16:54 | 37.10471 | -76.54321 | 801 ft | 125 kts | 143° |
| 2026-05-07 16:55 | 37.09790 | -76.53645 | 800 ft | 125 kts | 143° |
| 2026-05-07 16:55 | 37.09109 | -76.52972 | 801 ft | 125 kts | 143° |
| 2026-05-07 16:55 | 37.08429 | -76.52298 | 799 ft | 124 kts | 143° |
| 2026-05-07 16:55 | 37.07747 | -76.51624 | 799 ft | 125 kts | 143° |
| 2026-05-07 16:56 | 37.07061 | -76.50947 | 800 ft | 125 kts | 143° |
| 2026-05-07 16:56 | 37.06373 | -76.50270 | 815 ft | 126 kts | 143° |
| 2026-05-07 16:56 | 37.04996 | -76.48914 | 847 ft | 126 kts | 143° |
| 2026-05-07 16:57 | 37.04310 | -76.48237 | 853 ft | 126 kts | 143° |
| 2026-05-07 16:57 | 37.03629 | -76.47566 | 857 ft | 126 kts | 143° |
| 2026-05-07 16:57 | 37.02943 | -76.46889 | 859 ft | 126 kts | 143° |
| 2026-05-07 16:57 | 37.02258 | -76.46212 | 859 ft | 125 kts | 143° |
| 2026-05-07 16:58 | 37.01574 | -76.45536 | 860 ft | 125 kts | 143° |
| 2026-05-07 16:58 | 37.00892 | -76.44861 | 861 ft | 124 kts | 143° |
| 2026-05-07 16:58 | 37.00211 | -76.44187 | 859 ft | 125 kts | 143° |
| 2026-05-07 16:58 | 36.99525 | -76.43511 | 860 ft | 126 kts | 143° |
| 2026-05-07 16:59 | 36.98841 | -76.42835 | 860 ft | 125 kts | 143° |
| 2026-05-07 16:59 | 36.98154 | -76.42158 | 860 ft | 125 kts | 143° |
| 2026-05-07 16:59 | 36.97481 | -76.41494 | 861 ft | 125 kts | 143° |
| 2026-05-07 16:59 | 36.96798 | -76.40820 | 859 ft | 125 kts | 143° |
| 2026-05-07 17:00 | 36.96113 | -76.40147 | 859 ft | 126 kts | 143° |
| 2026-05-07 17:00 | 36.95423 | -76.39470 | 859 ft | 126 kts | 143° |
| 2026-05-07 17:00 | 36.94735 | -76.38794 | 860 ft | 125 kts | 143° |
| 2026-05-07 17:00 | 36.94048 | -76.38119 | 860 ft | 126 kts | 143° |
| 2026-05-07 17:01 | 36.93363 | -76.37446 | 860 ft | 125 kts | 143° |
| 2026-05-07 17:01 | 36.92678 | -76.36773 | 860 ft | 125 kts | 143° |
| 2026-05-07 17:01 | 36.91995 | -76.36102 | 860 ft | 125 kts | 143° |
| 2026-05-07 17:01 | 36.91309 | -76.35428 | 861 ft | 125 kts | 143° |
| 2026-05-07 17:02 | 36.90634 | -76.34760 | 870 ft | 117 kts | 143° |
| 2026-05-07 17:02 | 36.90024 | -76.34151 | 869 ft | 105 kts | 143° |
| 2026-05-07 17:02 | 36.89476 | -76.33603 | 869 ft | 92 kts | 144° |
| 2026-05-07 17:02 | 36.88990 | -76.33118 | 861 ft | 87 kts | 144° |
| 2026-05-07 17:03 | 36.88526 | -76.32657 | 802 ft | 82 kts | 143° |
| 2026-05-07 17:03 | 36.88112 | -76.32242 | 704 ft | 74 kts | 144° |
| 2026-05-07 17:03 | 36.87706 | -76.31839 | 659 ft | 75 kts | 144° |
| 2026-05-07 17:03 | 36.87312 | -76.31446 | 554 ft | 72 kts | 144° |
| 2026-05-07 17:04 | 36.86939 | -76.31073 | 409 ft | 63 kts | 144° |
| 2026-05-07 17:04 | 36.86615 | -76.30752 | 330 ft | 60 kts | 144° |
| 2026-05-07 17:04 | 36.86359 | -76.30505 | 198 ft | 30 kts | 151° |
| 2026-05-07 17:04 | 36.86261 | -76.30410 | 160 ft | 7 kts | 142° |
| 2026-05-07 17:05 | 36.86218 | -76.30383 | 151 ft | 8 kts | 141° |
| 2026-05-07 17:05 | 36.86177 | -76.30351 | 111 ft | 4 kts | 141° |
| 2026-05-07 17:05 | 36.86173 | -76.30343 | 107 ft | 0 kts | 136° |